CMA CGM Columba — 2DBC9 — position and weather

sailwx.info

Track history (hours):
 
Tides and Currents Weather Stations Pressure Air Temp Water Temp Dewpoint Dewpoint Depression Visibility Wind Speed Wind Dir Waves Ship Positions

CMA CGM Columba

Last reported at 2016-Jul-14 02:29 UTC. Time now 2016-Jul-24 14:43 UTC.
Position N 38°13' W 125°09'.
Warning: this ship's position is 10 days out of date.

Length 363 m; draft 10.8 m.

Type: Ship (hazmat cat A). MMSI: 235077448.

Date/timePositionNaut miles runAvg speedWind from/ knotsBaromVisibWave heightAir tempDewpointWater temp
2016-Jul-14 02:29N 38°13' W 125°09'1010.5
2016-Jul-14 01:32N 38°12' W 124°57'1110.8
2016-Jul-14 00:31N 38°12' W 124°43'1010.8
2016-Jul-13 23:33N 38°12' W 124°30'1110.6
2016-Jul-13 22:33N 38°11' W 124°16'1111.2
2016-Jul-13 21:33N 38°11' W 124°02'1111.1
2016-Jul-13 20:33N 38°10' W 123°48'1110.8
2016-Jul-13 19:33N 38°10' W 123°34'1010.4
2016-Jul-13 18:33N 38°10' W 123°21'10 9.6
2016-Jul-13 17:33N 38°02' W 123°13'9 9.3
2016-Jul-13 16:33N 37°57' W 123°04'9 9.4
2016-Jul-13 15:33N 37°52' W 122°54'1110.8
2016-Jul-13 14:33N 37°46' W 122°42'1110.7
2016-Jul-13 13:34N 37°49' W 122°29'8 8.0
2016-Jul-13 12:33N 37°48' W 122°19'0 0.0
2016-Jul-13 11:33N 37°48' W 122°19'0 0.0
2016-Jul-13 10:33N 37°48' W 122°19'0 0.0
2016-Jul-13 09:33N 37°48' W 122°19'0 0.0
2016-Jul-13 08:33N 37°48' W 122°19'0 0.0
2016-Jul-13 07:30N 37°48' W 122°19'0 0.0
2016-Jul-13 06:33N 37°48' W 122°19'0 0.0
2016-Jul-13 05:33N 37°48' W 122°19'0 0.0
2016-Jul-13 04:33N 37°48' W 122°19'0 0.0
2016-Jul-13 03:30N 37°48' W 122°19'0 0.0
2016-Jul-13 02:30N 37°48' W 122°19'0 0.0
2016-Jul-13 01:33N 37°48' W 122°19'0 0.0
2016-Jul-13 00:33N 37°48' W 122°19'0 0.0
2016-Jul-12 23:33N 37°48' W 122°19'0 0.0
2016-Jul-12 22:30N 37°48' W 122°19'0 0.0
2016-Jul-12 21:33N 37°48' W 122°19'0 0.0
2016-Jul-12 20:33N 37°48' W 122°19'0 0.0
2016-Jul-12 19:33N 37°48' W 122°19'0 0.0
2016-Jul-12 18:33N 37°48' W 122°19'0 0.0
2016-Jul-12 17:33N 37°48' W 122°19'0 0.0
2016-Jul-12 16:33N 37°48' W 122°19'0 0.0
2016-Jul-12 15:33N 37°48' W 122°19'0 0.0
2016-Jul-12 14:33N 37°48' W 122°19'1 1.2
2016-Jul-12 13:33N 37°48' W 122°17'3 3.1
2016-Jul-12 12:33N 37°48' W 122°21'1110.6
2016-Jul-12 11:33N 37°47' W 122°34'8 8.3
2016-Jul-12 10:33N 37°40' W 122°40'9 9.4
2016-Jul-12 09:33N 37°31' W 122°40'9 9.3
2016-Jul-12 08:33N 37°21' W 122°40'1212.0
2016-Jul-12 07:33N 37°09' W 122°37'1818.2
2016-Jul-12 06:33N 36°52' W 122°29'1818.4
2016-Jul-12 05:33N 36°35' W 122°21'1818.2
2016-Jul-12 04:33N 36°18' W 122°12'1818.4
2016-Jul-12 03:33N 36°02' W 122°01'1717.0
2016-Jul-12 02:33N 35°48' W 121°50'1616.3
2016-Jul-12 01:33N 35°34' W 121°40'1716.6
2016-Jul-12 00:32N 35°19' W 121°30'1616.4
2016-Jul-11 23:33N 35°05' W 121°20'1716.8
2016-Jul-11 22:33N 34°51' W 121°09'1716.9
2016-Jul-11 21:33N 34°36' W 120°59'2016.3
2016-Jul-11 20:19N 34°24' W 120°40'1417.9
2016-Jul-11 19:32N 34°20' W 120°23'1917.9
2016-Jul-11 18:27N 34°15' W 120°00'1617.9
2016-Jul-11 17:33N 34°10' W 119°42'1818.1
2016-Jul-11 16:32N 34°06' W 119°20'1918.1
2016-Jul-11 15:30N 33°57' W 119°00'3813.0
2016-Jul-11 12:33N 33°38' W 118°20'10 8.1
2016-Jul-11 11:21N 33°44' W 118°11'1 0.4
2016-Jul-11 09:24N 33°44' W 118°12'0 0.0
2016-Jul-11 03:15N 33°44' W 118°12'0 0.0
2016-Jul-11 02:33N 33°44' W 118°12'0 0.0
2016-Jul-11 01:30N 33°44' W 118°12'0 0.0
2016-Jul-11 00:30N 33°44' W 118°12'0 0.0
2016-Jul-10 23:33N 33°44' W 118°12'0 0.0
2016-Jul-10 22:30N 33°44' W 118°12'0 0.0
2016-Jul-10 21:33N 33°44' W 118°12'0 0.0
2016-Jul-10 20:33N 33°44' W 118°12'0 0.0
2016-Jul-10 19:33N 33°44' W 118°12'0 0.0
2016-Jul-10 18:33N 33°44' W 118°12'0 0.0
2016-Jul-10 17:33N 33°44' W 118°12'0 0.0
2016-Jul-10 16:33N 33°44' W 118°12'0 0.0
2016-Jul-10 15:33N 33°44' W 118°12'0 0.0
2016-Jul-10 14:33N 33°44' W 118°12'0 0.0
2016-Jul-10 13:33N 33°44' W 118°12'0 0.0
2016-Jul-10 12:15N 33°44' W 118°12'0 0.0
2016-Jul-10 11:33N 33°44' W 118°12'0 0.0
2016-Jul-10 10:27N 33°44' W 118°12'0 0.0
2016-Jul-10 09:30N 33°44' W 118°12'0 0.0
2016-Jul-10 08:33N 33°44' W 118°12'0 0.0
2016-Jul-10 07:30N 33°44' W 118°12'0 0.0
2016-Jul-10 06:33N 33°44' W 118°12'0 0.0
2016-Jul-10 05:33N 33°44' W 118°12'0 0.0
2016-Jul-10 04:33N 33°44' W 118°12'0 0.0
2016-Jul-10 03:33N 33°44' W 118°12'0 0.0
2016-Jul-10 02:33N 33°44' W 118°12'0 0.0
2016-Jul-10 01:27N 33°44' W 118°12'0 0.0
2016-Jul-10 00:30N 33°44' W 118°12'0 0.0
2016-Jul-09 23:33N 33°44' W 118°12'0 0.0
2016-Jul-09 22:33N 33°44' W 118°12'0 0.0
2016-Jul-09 13:15N 33°44' W 118°12'0 0.0
2016-Jul-09 10:12N 33°44' W 118°12'0 0.0
2016-Jul-09 03:06N 33°44' W 118°12'0 0.0
2016-Jul-08 22:06N 33°44' W 118°12'0 0.0
2016-Jul-08 15:33N 33°44' W 118°12'0 0.0
2016-Jul-08 13:33N 33°44' W 118°12'0 0.0
2016-Jul-08 12:24N 33°44' W 118°12'0 0.0
2016-Jul-08 10:30N 33°44' W 118°12'0 0.0
2016-Jul-08 09:06N 33°44' W 118°12'0 0.0
2016-Jul-08 08:33N 33°44' W 118°12'0 0.0
2016-Jul-08 07:18N 33°44' W 118°12'0 0.0
2016-Jul-08 06:27N 33°44' W 118°12'0 0.0
2016-Jul-08 04:15N 33°44' W 118°12'0 0.0
2016-Jul-08 03:33N 33°44' W 118°12'0 0.0
2016-Jul-08 02:33N 33°44' W 118°12'0 0.0
2016-Jul-08 01:30N 33°44' W 118°12'0 0.0
2016-Jul-08 00:06N 33°44' W 118°12'0 0.0
2016-Jul-07 19:06N 33°44' W 118°12'0 0.0
2016-Jul-07 18:30N 33°44' W 118°12'0 0.0
2016-Jul-07 17:33N 33°44' W 118°12'0 0.0
2016-Jul-07 16:33N 33°44' W 118°12'0 0.0
2016-Jul-07 15:30N 33°44' W 118°12'0 0.0
2016-Jul-07 14:33N 33°44' W 118°12'0 0.0
2016-Jul-07 13:15N 33°44' W 118°12'0 0.0
2016-Jul-07 12:30N 33°44' W 118°12'8 3.9
2016-Jul-07 10:33N 33°37' W 118°13'1111.2
2016-Jul-07 09:33N 33°36' W 118°27'1211.5
2016-Jul-07 08:33N 33°36' W 118°40'1211.8
2016-Jul-07 07:33N 33°36' W 118°55'1211.7
2016-Jul-07 06:31N 33°36' W 119°09'1311.7
2016-Jul-07 05:26N 33°36' W 119°24'1011.6
2016-Jul-07 04:33N 33°37' W 119°37'1211.7
2016-Jul-07 03:30N 33°36' W 119°51'1514.5
2016-Jul-07 02:30N 33°36' W 120°09'1415.1
2016-Jul-07 01:33N 33°36' W 120°26'1615.9
2016-Jul-07 00:33N 33°36' W 120°45'1715.9
2016-Jul-06 23:29N 33°36' W 121°05'1415.4
2016-Jul-06 22:33N 33°36' W 121°23'1715.7
2016-Jul-06 21:29N 33°36' W 121°43'3315.9
2016-Jul-06 19:23N 33°37' W 122°23'3314.6
2016-Jul-06 17:07N 33°36' W 123°02'1017.7
2016-Jul-06 16:34N 33°36' W 123°14'1817.6
2016-Jul-06 15:33N 33°36' W 123°36'5317.1
2016-Jul-06 12:27N 33°41' W 124°39'11818.5
2016-Jul-06 06:04N 34°42' W 126°41'5420.3
2016-Jul-06 03:26N 35°09' W 127°37'  
Track history (hours):
 
Tides and Currents Weather Stations Pressure Air Temp Water Temp Dewpoint Dewpoint Depression Visibility Wind Speed Wind Dir Waves Ship Positions

CMA CGM Columba

Last reported at 2016-Jul-14 02:29 UTC. Time now 2016-Jul-24 14:43 UTC.
Position N 38°13' W 125°09'.
Warning: this ship's position is 10 days out of date.

Length 363 m; draft 10.8 m.

Type: Ship (hazmat cat A). MMSI: 235077448.

Date/timePositionNaut miles runAvg speedWind from/ knotsBaromVisibWave heightAir tempDewpointWater temp
2016-Jul-14 02:29N 38°13' W 125°09'1010.5
2016-Jul-14 01:32N 38°12' W 124°57'1110.8
2016-Jul-14 00:31N 38°12' W 124°43'1010.8
2016-Jul-13 23:33N 38°12' W 124°30'1110.6
2016-Jul-13 22:33N 38°11' W 124°16'1111.2
2016-Jul-13 21:33N 38°11' W 124°02'1111.1
2016-Jul-13 20:33N 38°10' W 123°48'1110.8
2016-Jul-13 19:33N 38°10' W 123°34'1010.4
2016-Jul-13 18:33N 38°10' W 123°21'10 9.6
2016-Jul-13 17:33N 38°02' W 123°13'9 9.3
2016-Jul-13 16:33N 37°57' W 123°04'9 9.4
2016-Jul-13 15:33N 37°52' W 122°54'1110.8
2016-Jul-13 14:33N 37°46' W 122°42'1110.7
2016-Jul-13 13:34N 37°49' W 122°29'8 8.0
2016-Jul-13 12:33N 37°48' W 122°19'0 0.0
2016-Jul-13 11:33N 37°48' W 122°19'0 0.0
2016-Jul-13 10:33N 37°48' W 122°19'0 0.0
2016-Jul-13 09:33N 37°48' W 122°19'0 0.0
2016-Jul-13 08:33N 37°48' W 122°19'0 0.0
2016-Jul-13 07:30N 37°48' W 122°19'0 0.0
2016-Jul-13 06:33N 37°48' W 122°19'0 0.0
2016-Jul-13 05:33N 37°48' W 122°19'0 0.0
2016-Jul-13 04:33N 37°48' W 122°19'0 0.0
2016-Jul-13 03:30N 37°48' W 122°19'0 0.0
2016-Jul-13 02:30N 37°48' W 122°19'0 0.0
2016-Jul-13 01:33N 37°48' W 122°19'0 0.0
2016-Jul-13 00:33N 37°48' W 122°19'0 0.0
2016-Jul-12 23:33N 37°48' W 122°19'0 0.0
2016-Jul-12 22:30N 37°48' W 122°19'0 0.0
2016-Jul-12 21:33N 37°48' W 122°19'0 0.0
2016-Jul-12 20:33N 37°48' W 122°19'0 0.0
2016-Jul-12 19:33N 37°48' W 122°19'0 0.0
2016-Jul-12 18:33N 37°48' W 122°19'0 0.0
2016-Jul-12 17:33N 37°48' W 122°19'0 0.0
2016-Jul-12 16:33N 37°48' W 122°19'0 0.0
2016-Jul-12 15:33N 37°48' W 122°19'0 0.0
2016-Jul-12 14:33N 37°48' W 122°19'1 1.2
2016-Jul-12 13:33N 37°48' W 122°17'3 3.1
2016-Jul-12 12:33N 37°48' W 122°21'1110.6
2016-Jul-12 11:33N 37°47' W 122°34'8 8.3
2016-Jul-12 10:33N 37°40' W 122°40'9 9.4
2016-Jul-12 09:33N 37°31' W 122°40'9 9.3
2016-Jul-12 08:33N 37°21' W 122°40'1212.0
2016-Jul-12 07:33N 37°09' W 122°37'1818.2
2016-Jul-12 06:33N 36°52' W 122°29'1818.4
2016-Jul-12 05:33N 36°35' W 122°21'1818.2
2016-Jul-12 04:33N 36°18' W 122°12'1818.4
2016-Jul-12 03:33N 36°02' W 122°01'1717.0
2016-Jul-12 02:33N 35°48' W 121°50'1616.3
2016-Jul-12 01:33N 35°34' W 121°40'1716.6
2016-Jul-12 00:32N 35°19' W 121°30'1616.4
2016-Jul-11 23:33N 35°05' W 121°20'1716.8
2016-Jul-11 22:33N 34°51' W 121°09'1716.9
2016-Jul-11 21:33N 34°36' W 120°59'2016.3
2016-Jul-11 20:19N 34°24' W 120°40'1417.9
2016-Jul-11 19:32N 34°20' W 120°23'1917.9
2016-Jul-11 18:27N 34°15' W 120°00'1617.9
2016-Jul-11 17:33N 34°10' W 119°42'1818.1
2016-Jul-11 16:32N 34°06' W 119°20'1918.1
2016-Jul-11 15:30N 33°57' W 119°00'3813.0
2016-Jul-11 12:33N 33°38' W 118°20'10 8.1
2016-Jul-11 11:21N 33°44' W 118°11'1 0.4
2016-Jul-11 09:24N 33°44' W 118°12'0 0.0
2016-Jul-11 03:15N 33°44' W 118°12'0 0.0
2016-Jul-11 02:33N 33°44' W 118°12'0 0.0
2016-Jul-11 01:30N 33°44' W 118°12'0 0.0
2016-Jul-11 00:30N 33°44' W 118°12'0 0.0
2016-Jul-10 23:33N 33°44' W 118°12'0 0.0
2016-Jul-10 22:30N 33°44' W 118°12'0 0.0
2016-Jul-10 21:33N 33°44' W 118°12'0 0.0
2016-Jul-10 20:33N 33°44' W 118°12'0 0.0
2016-Jul-10 19:33N 33°44' W 118°12'0 0.0
2016-Jul-10 18:33N 33°44' W 118°12'0 0.0
2016-Jul-10 17:33N 33°44' W 118°12'0 0.0
2016-Jul-10 16:33N 33°44' W 118°12'0 0.0
2016-Jul-10 15:33N 33°44' W 118°12'0 0.0
2016-Jul-10 14:33N 33°44' W 118°12'0 0.0
2016-Jul-10 13:33N 33°44' W 118°12'0 0.0
2016-Jul-10 12:15N 33°44' W 118°12'0 0.0
2016-Jul-10 11:33N 33°44' W 118°12'0 0.0
2016-Jul-10 10:27N 33°44' W 118°12'0 0.0
2016-Jul-10 09:30N 33°44' W 118°12'0 0.0
2016-Jul-10 08:33N 33°44' W 118°12'0 0.0
2016-Jul-10 07:30N 33°44' W 118°12'0 0.0
2016-Jul-10 06:33N 33°44' W 118°12'0 0.0
2016-Jul-10 05:33N 33°44' W 118°12'0 0.0
2016-Jul-10 04:33N 33°44' W 118°12'0 0.0
2016-Jul-10 03:33N 33°44' W 118°12'0 0.0
2016-Jul-10 02:33N 33°44' W 118°12'0 0.0
2016-Jul-10 01:27N 33°44' W 118°12'0 0.0
2016-Jul-10 00:30N 33°44' W 118°12'0 0.0
2016-Jul-09 23:33N 33°44' W 118°12'0 0.0
2016-Jul-09 22:33N 33°44' W 118°12'0 0.0
2016-Jul-09 13:15N 33°44' W 118°12'0 0.0
2016-Jul-09 10:12N 33°44' W 118°12'0 0.0
2016-Jul-09 03:06N 33°44' W 118°12'0 0.0
2016-Jul-08 22:06N 33°44' W 118°12'0 0.0
2016-Jul-08 15:33N 33°44' W 118°12'0 0.0
2016-Jul-08 13:33N 33°44' W 118°12'0 0.0
2016-Jul-08 12:24N 33°44' W 118°12'0 0.0
2016-Jul-08 10:30N 33°44' W 118°12'0 0.0
2016-Jul-08 09:06N 33°44' W 118°12'0 0.0
2016-Jul-08 08:33N 33°44' W 118°12'0 0.0
2016-Jul-08 07:18N 33°44' W 118°12'0 0.0
2016-Jul-08 06:27N 33°44' W 118°12'0 0.0
2016-Jul-08 04:15N 33°44' W 118°12'0 0.0
2016-Jul-08 03:33N 33°44' W 118°12'0 0.0
2016-Jul-08 02:33N 33°44' W 118°12'0 0.0
2016-Jul-08 01:30N 33°44' W 118°12'0 0.0
2016-Jul-08 00:06N 33°44' W 118°12'0 0.0
2016-Jul-07 19:06N 33°44' W 118°12'0 0.0
2016-Jul-07 18:30N 33°44' W 118°12'0 0.0
2016-Jul-07 17:33N 33°44' W 118°12'0 0.0
2016-Jul-07 16:33N 33°44' W 118°12'0 0.0
2016-Jul-07 15:30N 33°44' W 118°12'0 0.0
2016-Jul-07 14:33N 33°44' W 118°12'0 0.0
2016-Jul-07 13:15N 33°44' W 118°12'0 0.0
2016-Jul-07 12:30N 33°44' W 118°12'8 3.9
2016-Jul-07 10:33N 33°37' W 118°13'1111.2
2016-Jul-07 09:33N 33°36' W 118°27'1211.5
2016-Jul-07 08:33N 33°36' W 118°40'1211.8
2016-Jul-07 07:33N 33°36' W 118°55'1211.7
2016-Jul-07 06:31N 33°36' W 119°09'1311.7
2016-Jul-07 05:26N 33°36' W 119°24'1011.6
2016-Jul-07 04:33N 33°37' W 119°37'1211.7
2016-Jul-07 03:30N 33°36' W 119°51'1514.5
2016-Jul-07 02:30N 33°36' W 120°09'1415.1
2016-Jul-07 01:33N 33°36' W 120°26'1615.9
2016-Jul-07 00:33N 33°36' W 120°45'1715.9
2016-Jul-06 23:29N 33°36' W 121°05'1415.4
2016-Jul-06 22:33N 33°36' W 121°23'1715.7
2016-Jul-06 21:29N 33°36' W 121°43'3315.9
2016-Jul-06 19:23N 33°37' W 122°23'3314.6
2016-Jul-06 17:07N 33°36' W 123°02'1017.7
2016-Jul-06 16:34N 33°36' W 123°14'1817.6
2016-Jul-06 15:33N 33°36' W 123°36'5317.1
2016-Jul-06 12:27N 33°41' W 124°39'11818.5
2016-Jul-06 06:04N 34°42' W 126°41'5420.3
2016-Jul-06 03:26N 35°09' W 127°37'  

Dump ship's entire track history